Česky Dansk Deutsch English Español Suomi Français Magyar Italiano Nederlands norsk Polski Português svenska Türkçe

 

Het Weer

Sana'A (Yemen)

22:00, 25 maart 2015 (GMT)

NWNNE
WE
SWSSE
Home            
Sana'A Al-Hazm Marib Hodeidah Sa'Ada / Sadah Taiz Gizan Najran Mokha Mokha Ataq Assab Aden Khamis Mushait Abha Sharurah Djibouti \ Ambouli Djibouti Sayun Massawa Bisha Makale Wadi Al Dawasser Airport

Om een weerknop op uw website of weblog te plaatsen, copieer onderstaande code en plak die in uw pagina. In het eerste vakje staat HTML-code, in het tweede vakje UBB-code.


Add to Google

Details

Wind speed:2 bf, 4 kn, 2.1 m/s, 4.6 miles/h, 7.4 km/h
Wind direction:NNW, 330°
Görüş mesafesi:Değerinden büyük 10000 m, 10 km, 32800 ft, 6.2 miles
Clouds:Az at 3000 ft, 914 m
Sıcaklık:14°C, 57°F
Dew-point:11°C, 52°F
Atmosferık basınç:1027 hPa, 770.3 mmHg, 30.33 inHg, 1.014 atm
Relativ humidity:82.1 %
METAR:OYSN 252200Z 33004KT 9999 FEW030 14/11 Q1027 NOSIG

Snelkoppelingen

Actuele weersinformatie van de hele wereld. Voeg locaties toe met het plus (+) symbool. Deze snelkoppelingen kunnen worden toegevoegd aan Google.

Lid van de Technetium groep

website free tracking
StatCounter NetStat W3C Validator

17-04-2021 04:50:40
astro.technetium.be money.technetium.be phote.technetium.be tafeltennistafel.technetium.be www.ligfiets.net